Time;durP1;ratioP1;P1;durP2;ratioP2;P2;SDS_P1;SDS_P2;PMS_P1;PMS_P2;Temp;Humidity;BMP_temperature;BMP_pressure;BME280_temperature;BME280_humidity;BME280_pressure;Samples;Min_cycle;Max_cycle;Signal;HPM_P1;HPM_P2
2022/12/16 00:00:45;;;;;;;41.17;22.87;;;;;;;0.94;100.00;94730.78;4894416;28;104937;-61
2022/12/16 00:03:12;;;;;;;46.70;23.63;;;;;;;0.94;100.00;94730.00;4895105;28;105425;-61
2022/12/16 00:05:39;;;;;;;42.70;22.90;;;;;;;0.95;100.00;94729.78;4894213;28;101983;-61
2022/12/16 00:08:06;;;;;;;42.80;23.03;;;;;;;0.95;100.00;94734.22;4894866;28;105717;-61
2022/12/16 00:10:51;;;;;;;48.67;23.63;;;;;;;0.97;100.00;94726.91;4898144;28;105395;-61
2022/12/16 00:13:20;;;;;;;47.40;23.80;;;;;;;0.95;100.00;94736.81;4895328;28;105736;-61
2022/12/16 00:15:47;;;;;;;49.90;23.60;;;;;;;0.92;100.00;94747.75;4894284;28;105247;-61
2022/12/16 00:18:14;;;;;;;47.00;24.20;;;;;;;0.87;100.00;94731.94;4895112;28;101849;-61
2022/12/16 00:20:45;;;;;;;48.00;24.40;;;;;;;0.88;100.00;94728.31;4928366;28;102723;-61
2022/12/16 00:23:12;;;;;;;45.40;23.63;;;;;;;0.90;100.00;94721.03;4913790;28;105227;-61
2022/12/16 00:25:41;;;;;;;49.80;23.87;;;;;;;0.95;100.00;94713.28;4914119;28;101887;-61
2022/12/16 00:28:08;;;;;;;46.10;23.30;;;;;;;0.97;100.00;94719.06;4914307;28;105368;-61
2022/12/16 00:30:36;;;;;;;43.80;23.27;;;;;;;0.93;100.00;94721.34;4913289;28;105416;-61
2022/12/16 00:33:04;;;;;;;44.73;22.53;;;;;;;0.92;100.00;94727.63;4934768;28;101872;-61
2022/12/16 00:35:31;;;;;;;45.10;22.77;;;;;;;0.93;100.00;94728.44;4913829;28;104057;-61
2022/12/16 00:37:58;;;;;;;45.77;24.13;;;;;;;0.90;100.00;94732.28;4910330;28;102007;-61
2022/12/16 00:40:25;;;;;;;47.27;24.13;;;;;;;0.87;100.00;94727.50;4912548;28;102359;-61
2022/12/16 00:42:54;;;;;;;47.63;23.10;;;;;;;0.87;100.00;94731.94;4910846;28;105609;-61
2022/12/16 00:45:20;;;;;;;44.33;22.47;;;;;;;0.88;100.00;94728.31;4911064;28;102019;-61
2022/12/16 00:47:51;;;;;;;41.97;22.97;;;;;;;0.89;100.00;94735.13;4911113;28;105268;-61
2022/12/16 00:50:19;;;;;;;38.40;21.70;;;;;;;0.90;100.00;94736.72;4911818;28;102901;-61
2022/12/16 00:52:46;;;;;;;35.97;20.03;;;;;;;0.84;100.00;94737.66;4912061;28;101815;-61
2022/12/16 00:55:13;;;;;;;42.93;22.47;;;;;;;0.90;100.00;94742.75;4913446;28;105901;-61
2022/12/16 00:57:40;;;;;;;42.13;22.30;;;;;;;0.92;100.00;94745.13;4912223;28;102007;-61
2022/12/16 01:00:11;;;;;;;39.23;21.33;;;;;;;0.98;100.00;94746.81;4909820;28;105529;-61
2022/12/16 01:02:40;;;;;;;35.80;20.73;;;;;;;0.89;100.00;94746.38;4910321;28;104222;-61
2022/12/16 01:05:10;;;;;;;37.53;20.23;;;;;;;0.88;100.00;94754.47;4911659;28;101788;-61
2022/12/16 01:07:37;;;;;;;38.73;22.13;;;;;;;0.87;100.00;94758.09;4910889;28;104766;-61
2022/12/16 01:10:05;;;;;;;37.50;22.20;;;;;;;0.89;100.00;94767.31;4911849;28;102494;-61
2022/12/16 01:12:32;;;;;;;37.30;21.47;;;;;;;0.90;100.00;94771.53;4910188;28;101915;-61
2022/12/16 01:15:01;;;;;;;41.43;21.53;;;;;;;0.82;100.00;94771.09;4911312;28;103029;-61
2022/12/16 01:17:28;;;;;;;38.40;21.87;;;;;;;0.80;100.00;94788.81;4916225;28;103067;-61
2022/12/16 01:19:55;;;;;;;34.90;19.93;;;;;;;0.78;100.00;94789.06;4913044;28;104877;-61
2022/12/16 01:22:24;;;;;;;36.37;19.50;;;;;;;0.75;100.00;94797.38;4911408;28;105613;-61
2022/12/16 01:24:52;;;;;;;39.67;21.53;;;;;;;0.73;100.00;94802.00;4912334;28;101962;-61
2022/12/16 01:27:19;;;;;;;36.60;20.50;;;;;;;0.77;100.00;94805.00;4914011;28;102884;-61
2022/12/16 01:29:46;;;;;;;37.87;20.57;;;;;;;0.77;100.00;94805.78;4911854;28;105078;-61
2022/12/16 01:32:14;;;;;;;40.37;22.00;;;;;;;0.78;100.00;94806.59;4913566;28;101849;-61
2022/12/16 01:34:43;;;;;;;38.70;21.30;;;;;;;0.74;100.00;94808.06;4912257;28;105230;-61
2022/12/16 01:37:12;;;;;;;35.57;21.37;;;;;;;0.71;100.00;94814.53;4914586;28;106259;-61
2022/12/16 01:39:40;;;;;;;41.13;21.83;;;;;;;0.69;100.00;94813.16;4911869;28;105614;-61
2022/12/16 01:42:12;;;;;;;40.20;21.53;;;;;;;0.76;100.00;94809.41;4911608;28;105484;-61
2022/12/16 01:44:41;;;;;;;39.63;22.10;;;;;;;0.67;100.00;94808.16;4912103;28;101844;-61
2022/12/16 01:47:15;;;;;;;39.17;22.70;;;;;;;0.68;100.00;94816.81;4912213;28;104835;-61
2022/12/16 01:49:49;;;;;;;37.30;21.87;;;;;;;0.67;100.00;94815.22;4911325;28;105762;-61
2022/12/16 01:52:20;;;;;;;41.13;23.07;;;;;;;0.64;100.00;94815.66;4911796;28;101798;-61
2022/12/16 01:54:54;;;;;;;39.83;22.00;;;;;;;0.74;100.00;94818.53;4912069;28;105520;-61
2022/12/16 01:57:26;;;;;;;39.77;22.00;;;;;;;0.72;100.00;94823.19;4911459;28;102631;-61
2022/12/16 01:59:55;;;;;;;37.43;21.10;;;;;;;0.69;100.00;94816.59;4916759;28;101953;-61
2022/12/16 02:02:23;;;;;;;40.63;23.37;;;;;;;0.81;100.00;94816.56;4912473;28;103001;-61
2022/12/16 02:07:34;;;;;;;41.40;22.73;;;;;;;0.87;100.00;94826.13;4911821;28;105311;-61
2022/12/16 02:10:03;;;;;;;42.27;22.27;;;;;;;0.90;100.00;94830.91;4911175;28;104046;-61
2022/12/16 02:12:39;;;;;;;43.03;23.47;;;;;;;0.98;100.00;94835.78;4911452;28;101978;-61
2022/12/16 02:15:18;;;;;;;44.27;22.73;;;;;;;0.94;100.00;94827.59;4911583;28;105750;-61
2022/12/16 02:17:53;;;;;;;38.70;22.17;;;;;;;0.96;100.00;94822.97;4914349;28;102602;-61
2022/12/16 02:20:49;;;;;;;43.87;22.17;;;;;;;1.11;100.00;94838.19;4911802;28;102188;-61
2022/12/16 02:23:43;;;;;;;39.63;21.40;;;;;;;1.09;100.00;94838.41;4914388;28;105709;-61
2022/12/16 02:26:41;;;;;;;46.97;22.87;;;;;;;1.05;100.00;94845.13;4912739;28;101886;-61
2022/12/16 02:29:27;;;;;;;42.23;23.47;;;;;;;1.08;100.00;94839.44;4908609;28;105847;-61
2022/12/16 02:32:05;;;;;;;39.60;21.73;;;;;;;1.06;100.00;94835.47;4912426;28;102570;-61
2022/12/16 02:34:43;;;;;;;39.93;21.93;;;;;;;1.05;100.00;94841.72;4912868;28;101987;-61
2022/12/16 02:37:18;;;;;;;39.67;21.70;;;;;;;1.03;100.00;94844.56;4924513;28;102322;-61
2022/12/16 02:39:53;;;;;;;41.03;21.27;;;;;;;1.03;100.00;94856.84;4931468;28;102597;-61
2022/12/16 02:42:24;;;;;;;40.87;22.57;;;;;;;0.96;100.00;94854.34;4914383;28;101855;-61
2022/12/16 02:45:00;;;;;;;45.23;23.93;;;;;;;0.94;100.00;94853.00;4932212;28;102364;-61
2022/12/16 02:47:29;;;;;;;41.97;22.63;;;;;;;0.90;100.00;94859.69;4916896;28;105908;-61
2022/12/16 02:49:56;;;;;;;43.67;22.40;;;;;;;0.90;100.00;94859.69;4914076;28;105642;-61
2022/12/16 02:52:25;;;;;;;42.77;22.97;;;;;;;0.87;100.00;94857.53;4931286;28;101831;-61
2022/12/16 02:54:56;;;;;;;40.10;21.17;;;;;;;0.92;100.00;94857.63;4931786;28;101867;-61
2022/12/16 02:57:54;;;;;;;42.93;22.63;;;;;;;0.93;100.00;94859.25;4913851;28;103971;-61
2022/12/16 03:00:23;;;;;;;42.70;22.97;;;;;;;0.88;100.00;94867.00;4882571;28;105758;-61
2022/12/16 03:02:58;;;;;;;47.00;23.17;;;;;;;0.77;100.00;94862.56;4931505;28;101897;-61
2022/12/16 03:05:30;;;;;;;42.63;23.67;;;;;;;0.83;100.00;94866.88;4913928;28;105244;-61
2022/12/16 03:08:01;;;;;;;46.67;23.87;;;;;;;0.77;100.00;94862.56;4931105;28;103150;-61
2022/12/16 03:10:31;;;;;;;41.67;23.17;;;;;;;0.78;100.00;94869.38;4935111;28;101845;-61
2022/12/16 03:13:01;;;;;;;43.10;23.93;;;;;;;0.85;100.00;94870.03;4913406;28;103844;-61
2022/12/16 03:15:32;;;;;;;44.03;23.27;;;;;;;0.82;100.00;94860.06;4913819;28;102078;-61
2022/12/16 03:18:02;;;;;;;43.70;23.77;;;;;;;0.85;100.00;94856.97;4913419;28;105527;-61
2022/12/16 03:20:35;;;;;;;45.60;24.10;;;;;;;0.84;100.00;94858.81;4930766;28;104228;-61
2022/12/16 03:23:07;;;;;;;46.83;23.20;;;;;;;0.85;100.00;94862.19;4931567;28;101972;-61
2022/12/16 03:25:37;;;;;;;45.90;24.10;;;;;;;0.79;100.00;94871.75;4931457;28;102559;-61
2022/12/16 03:28:30;;;;;;;45.60;24.00;;;;;;;0.78;100.00;94875.38;4930425;28;103200;-61
2022/12/16 03:31:04;;;;;;;42.53;23.57;;;;;;;0.87;100.00;94873.22;4911661;28;101909;-61
2022/12/16 03:33:39;;;;;;;42.70;23.17;;;;;;;0.88;100.00;94882.69;4916314;28;105847;-61
2022/12/16 03:36:12;;;;;;;45.67;23.27;;;;;;;0.83;100.00;94887.81;4912998;28;101911;-61
2022/12/16 03:38:41;;;;;;;48.73;23.33;;;;;;;0.86;100.00;94885.53;4913512;28;105431;-61
2022/12/16 03:41:08;;;;;;;43.37;23.93;;;;;;;0.73;100.00;94885.72;4930312;28;103081;-61
2022/12/16 03:43:37;;;;;;;43.57;23.20;;;;;;;0.70;100.00;94888.00;4930943;28;101790;-61
2022/12/16 03:46:07;;;;;;;40.23;22.83;;;;;;;0.80;100.00;94893.47;4931136;28;102392;-61
2022/12/16 03:48:35;;;;;;;44.60;23.73;;;;;;;0.85;100.00;94885.75;4912315;28;105927;-61
2022/12/16 03:51:03;;;;;;;41.17;22.33;;;;;;;0.92;100.00;94896.88;4930904;28;102032;-61
2022/12/16 03:53:30;;;;;;;42.63;23.00;;;;;;;0.81;100.00;94903.72;4916336;28;105844;-61
2022/12/16 03:55:57;;;;;;;42.57;22.47;;;;;;;0.82;100.00;94897.47;4913546;28;101976;-61
2022/12/16 03:58:24;;;;;;;45.27;23.67;;;;;;;0.77;100.00;94909.63;4930382;28;102925;-61
2022/12/16 04:00:51;;;;;;;41.23;21.50;;;;;;;0.82;100.00;94912.38;4930200;28;102544;-61
2022/12/16 04:03:21;;;;;;;42.87;21.87;;;;;;;0.85;100.00;94911.91;4930815;28;101707;-61
2022/12/16 04:05:50;;;;;;;43.70;22.67;;;;;;;0.85;100.00;94911.91;4913315;28;105276;-61
2022/12/16 04:08:18;;;;;;;42.03;22.07;;;;;;;0.92;100.00;94917.81;4912587;28;105211;-61
2022/12/16 04:24:31;;;;;;;39.47;21.57;;;;;;;0.92;100.00;94923.06;4930679;28;101685;-61
2022/12/16 04:32:24;;;;;;;39.00;20.60;;;;;;;0.93;100.00;94924.66;4911441;28;101904;-61
2022/12/16 04:34:50;;;;;;;37.53;20.37;;;;;;;0.92;100.00;94920.44;4930854;28;102320;-61
